createdAt,value
2023-01-01T00:01:29.001Z,15.44
2023-01-01T00:06:31.869Z,15.45
2023-01-01T00:11:36.073Z,15.44
2023-01-01T00:16:39.028Z,15.42
2023-01-01T00:21:41.958Z,15.40
2023-01-01T00:26:46.271Z,15.42
2023-01-01T00:31:48.990Z,15.44
2023-01-01T00:36:52.076Z,15.44
2023-01-01T00:41:56.203Z,15.40
2023-01-01T00:46:58.980Z,15.37
2023-01-01T00:52:01.812Z,15.36
2023-01-01T00:57:06.111Z,15.39
2023-01-01T01:02:09.044Z,15.36
2023-01-01T01:07:11.985Z,15.31
2023-01-01T01:12:17.963Z,15.28
2023-01-01T01:17:21.753Z,15.27
2023-01-01T01:22:28.669Z,15.26
2023-01-01T01:27:33.537Z,15.20
2023-01-01T01:32:36.381Z,15.16
2023-01-01T01:37:39.240Z,15.14
2023-01-01T01:42:46.927Z,15.09
2023-01-01T01:47:51.402Z,15.11
2023-01-01T01:53:01.298Z,15.10
2023-01-01T01:58:08.291Z,15.04
2023-01-01T02:03:13.181Z,14.99
2023-01-01T02:08:16.624Z,14.99
2023-01-01T02:13:20.946Z,15.04
2023-01-01T02:18:26.586Z,15.03
2023-01-01T02:23:44.649Z,15.08
2023-01-01T02:28:54.593Z,15.08
2023-01-01T02:34:01.193Z,15.11
2023-01-01T02:39:06.380Z,15.14
2023-01-01T02:44:12.074Z,15.13
2023-01-01T02:49:14.937Z,15.07
2023-01-01T02:54:23.476Z,14.98
2023-01-01T02:59:51.324Z,14.94
2023-01-01T03:05:05.054Z,14.92
2023-01-01T03:10:15.159Z,14.87
2023-01-01T03:15:25.656Z,14.84
2023-01-01T03:20:31.175Z,14.82
2023-01-01T03:25:35.547Z,14.79
2023-01-01T03:30:41.846Z,14.78
2023-01-01T03:35:48.112Z,14.79
2023-01-01T03:40:55.531Z,14.76
2023-01-01T03:46:00.887Z,14.70
2023-01-01T03:51:07.099Z,14.71
2023-01-01T03:56:15.296Z,14.69
2023-01-01T04:01:24.032Z,14.71
2023-01-01T04:06:26.986Z,14.66
2023-01-01T04:11:49.681Z,14.63
2023-01-01T04:16:53.772Z,14.57
2023-01-01T04:21:56.647Z,14.54
2023-01-01T04:26:59.593Z,14.50
2023-01-01T04:32:03.826Z,14.48
2023-01-01T04:37:11.382Z,14.44
2023-01-01T04:42:16.028Z,14.40
2023-01-01T04:47:20.065Z,14.39
2023-01-01T04:52:23.273Z,14.43
2023-01-01T04:57:26.027Z,14.42
2023-01-01T05:02:30.224Z,14.37
2023-01-01T05:07:34.209Z,14.41
2023-01-01T05:12:37.003Z,14.42
2023-01-01T05:17:41.152Z,14.44
2023-01-01T05:22:43.889Z,14.48
2023-01-01T05:27:46.636Z,14.49
2023-01-01T05:32:50.727Z,14.48
2023-01-01T05:37:55.195Z,14.47
2023-01-01T05:42:58.099Z,14.46
2023-01-01T05:48:02.800Z,14.40
2023-01-01T05:53:05.831Z,14.39
2023-01-01T05:58:08.608Z,14.40
2023-01-01T06:03:12.743Z,14.39
2023-01-01T06:08:15.919Z,14.36
2023-01-01T06:13:18.725Z,14.32
2023-01-01T06:18:23.238Z,14.31
2023-01-01T06:23:26.026Z,14.30
2023-01-01T06:28:28.946Z,14.26
2023-01-01T06:33:33.564Z,14.22
2023-01-01T06:38:37.684Z,14.19
2023-01-01T06:43:40.918Z,14.16
2023-01-01T06:48:45.793Z,14.15
2023-01-01T06:53:48.929Z,14.18
2023-01-01T06:58:51.884Z,14.17
2023-01-01T07:03:57.387Z,14.14
2023-01-01T07:09:00.319Z,14.14
2023-01-01T07:14:04.215Z,14.12
2023-01-01T07:19:08.295Z,14.09
2023-01-01T07:24:12.380Z,14.08
2023-01-01T07:29:15.467Z,14.07
2023-01-01T07:34:21.637Z,14.04
2023-01-01T07:39:24.438Z,14.04
2023-01-01T07:44:27.235Z,14.03
2023-01-01T07:49:31.343Z,14.06
2023-01-01T07:54:34.130Z,14.08
2023-01-01T07:59:37.270Z,14.13
2023-01-01T08:04:41.424Z,14.14
2023-01-01T08:09:44.245Z,14.15
2023-01-01T08:14:47.607Z,14.16
2023-01-01T08:19:52.636Z,14.16
2023-01-01T08:24:55.516Z,14.21
2023-01-01T08:29:58.230Z,14.26
2023-01-01T08:35:02.727Z,14.27
2023-01-01T08:40:06.675Z,14.30
2023-01-01T08:45:10.514Z,14.32
2023-01-01T08:50:14.558Z,14.41
2023-01-01T08:55:17.343Z,14.51
2023-01-01T09:00:21.649Z,14.58
2023-01-01T09:05:25.705Z,14.65
2023-01-01T09:10:28.465Z,14.70
2023-01-01T09:15:31.308Z,14.73
2023-01-01T09:20:35.665Z,14.77
2023-01-01T09:25:38.596Z,14.80
2023-01-01T09:30:41.705Z,14.84
2023-01-01T09:35:45.842Z,14.90
2023-01-01T09:40:55.774Z,14.93
2023-01-01T09:46:00.599Z,14.97
2023-01-01T09:51:06.957Z,15.01
2023-01-01T09:56:15.102Z,15.07
2023-01-01T10:01:24.505Z,15.13
2023-01-01T10:06:30.050Z,15.18
2023-01-01T10:11:39.972Z,15.19
2023-01-01T10:16:44.953Z,15.23
2023-01-01T10:21:51.100Z,15.27
2023-01-01T10:26:55.444Z,15.31
2023-01-01T10:31:58.989Z,15.36
2023-01-01T10:37:03.711Z,15.41
2023-01-01T10:42:06.574Z,15.48
2023-01-01T10:47:24.531Z,15.55
2023-01-01T10:52:31.929Z,15.65
2023-01-01T10:57:37.787Z,15.74
2023-01-01T11:02:40.604Z,15.86
2023-01-01T11:07:44.982Z,15.89
2023-01-01T11:13:05.300Z,15.88
2023-01-01T11:18:14.871Z,15.80
2023-01-01T11:23:25.612Z,15.69
2023-01-01T11:28:31.462Z,15.64
2023-01-01T11:33:36.250Z,15.61
2023-01-01T11:38:40.615Z,15.65
2023-01-01T11:43:46.552Z,15.69
2023-01-01T11:48:49.382Z,15.68
2023-01-01T11:53:53.672Z,15.72
2023-01-01T11:58:58.789Z,15.76
2023-01-01T12:04:04.465Z,15.83
2023-01-01T12:09:18.302Z,15.83
2023-01-01T12:14:28.273Z,15.89
2023-01-01T12:19:39.408Z,15.91
2023-01-01T12:24:43.661Z,15.91
2023-01-01T12:30:06.405Z,15.92
2023-01-01T12:35:15.477Z,15.97
2023-01-01T12:40:37.440Z,16.06
2023-01-01T12:46:16.756Z,16.12
2023-01-01T12:51:29.845Z,16.11
2023-01-01T12:56:37.896Z,16.09
2023-01-01T13:01:41.356Z,16.07
2023-01-01T13:06:47.045Z,16.09
2023-01-01T13:11:53.903Z,16.12
2023-01-01T13:16:58.032Z,16.12
2023-01-01T13:22:01.512Z,16.09
2023-01-01T13:27:09.145Z,15.99
2023-01-01T13:32:15.210Z,15.88
2023-01-01T13:37:53.412Z,15.80
2023-01-01T13:43:17.224Z,15.69
2023-01-01T13:48:31.421Z,15.59
2023-01-01T13:53:45.434Z,15.52
2023-01-01T13:59:19.060Z,15.49
2023-01-01T14:04:31.907Z,15.44
2023-01-01T14:09:34.622Z,15.44
2023-01-01T14:14:39.337Z,15.40
2023-01-01T14:19:43.034Z,15.33
2023-01-01T14:24:47.578Z,15.30
2023-01-01T14:29:52.668Z,15.28
2023-01-01T14:35:02.177Z,15.27
2023-01-01T14:40:29.355Z,15.22
2023-01-01T14:45:34.047Z,15.22
2023-01-01T14:50:37.119Z,15.18
2023-01-01T14:55:41.939Z,15.12
2023-01-01T15:00:46.214Z,15.04
2023-01-01T15:05:59.530Z,14.99
2023-01-01T15:11:05.075Z,14.96
2023-01-01T15:16:18.628Z,14.92
2023-01-01T15:21:34.406Z,14.88
2023-01-01T15:26:41.784Z,14.87
2023-01-01T15:31:49.106Z,14.84
2023-01-01T15:36:53.436Z,14.81
2023-01-01T15:41:56.363Z,14.76
2023-01-01T15:47:14.686Z,14.72
2023-01-01T15:52:20.983Z,14.70
2023-01-01T15:57:24.410Z,14.64
2023-01-01T16:02:32.120Z,14.57
2023-01-01T16:07:35.020Z,14.53
2023-01-01T16:12:37.753Z,14.53
2023-01-01T16:17:42.250Z,14.57
2023-01-01T16:22:45.294Z,14.61
2023-01-01T16:27:48.304Z,14.59
2023-01-01T16:32:52.443Z,14.55
2023-01-01T16:37:55.353Z,14.52
2023-01-01T16:42:58.060Z,14.47
2023-01-01T16:48:02.396Z,14.47
2023-01-01T16:53:05.208Z,14.42
2023-01-01T16:58:47.401Z,14.38
2023-01-01T17:03:31.989Z,14.32
2023-01-01T17:08:35.395Z,14.29
2023-01-01T17:13:39.106Z,14.26
2023-01-01T17:24:06.841Z,14.27
2023-01-01T17:29:09.794Z,14.30
2023-01-01T17:34:14.869Z,14.30
2023-01-01T17:39:17.921Z,14.29
2023-01-01T17:44:20.679Z,14.25
2023-01-01T17:49:24.802Z,14.23
2023-01-01T17:54:27.499Z,14.22
2023-01-01T17:59:31.416Z,14.21
2023-01-01T18:04:35.752Z,14.23
2023-01-01T18:09:38.553Z,14.24
2023-01-01T18:14:41.601Z,14.25
2023-01-01T18:19:45.830Z,14.25
2023-01-01T18:24:48.600Z,14.26
2023-01-01T18:29:51.453Z,14.28
2023-01-01T18:34:55.496Z,14.30
2023-01-01T18:40:00.100Z,14.29
2023-01-01T18:45:11.543Z,14.30
2023-01-01T18:50:25.734Z,14.30
2023-01-01T18:55:29.219Z,14.31
2023-01-01T19:00:33.225Z,14.35
2023-01-01T19:05:37.660Z,14.37
2023-01-01T19:10:41.844Z,14.40
2023-01-01T19:15:46.358Z,14.41
2023-01-01T19:20:52.444Z,14.43
2023-01-01T19:25:56.713Z,14.43
2023-01-01T19:31:00.213Z,14.39
2023-01-01T19:36:05.256Z,14.38
2023-01-01T19:41:08.830Z,14.38
2023-01-01T19:46:12.973Z,14.37
2023-01-01T19:51:17.206Z,14.38
2023-01-01T19:56:20.193Z,14.39
2023-01-01T20:01:23.041Z,14.43
2023-01-01T20:06:27.646Z,14.48
2023-01-01T20:11:31.941Z,14.47
2023-01-01T20:16:36.475Z,14.45
2023-01-01T20:22:00.486Z,14.45
2023-01-01T20:27:03.307Z,14.45
2023-01-01T20:32:12.293Z,14.46
2023-01-01T20:37:39.325Z,14.46
2023-01-01T20:42:43.458Z,14.47
2023-01-01T20:47:46.538Z,14.45
2023-01-01T20:52:50.651Z,14.45
2023-01-01T20:57:53.412Z,14.44
2023-01-01T21:02:56.167Z,14.45
2023-01-01T21:08:00.420Z,14.42
2023-01-01T21:13:03.180Z,14.38
2023-01-01T21:18:06.346Z,14.33
2023-01-01T21:23:15.045Z,14.30
2023-01-01T21:28:18.720Z,14.27
2023-01-01T21:33:27.349Z,14.25
2023-01-01T21:38:32.932Z,14.24
2023-01-01T21:43:38.909Z,14.21
2023-01-01T21:48:43.432Z,14.19
2023-01-01T21:53:47.777Z,14.15
2023-01-01T21:59:08.231Z,14.14
2023-01-01T22:04:19.926Z,14.14
2023-01-01T22:09:26.155Z,14.12
2023-01-01T22:14:41.734Z,14.13
2023-01-01T22:19:46.026Z,14.14
2023-01-01T22:24:53.131Z,14.16
2023-01-01T22:29:56.880Z,14.17
2023-01-01T22:35:02.893Z,14.18
2023-01-01T22:40:09.134Z,14.18
2023-01-01T22:45:14.888Z,14.19
2023-01-01T22:50:22.258Z,14.20
2023-01-01T22:55:26.359Z,14.23
2023-01-01T23:00:29.856Z,14.22
2023-01-01T23:05:32.817Z,14.21
2023-01-01T23:10:37.161Z,14.22
2023-01-01T23:15:57.775Z,14.21
2023-01-01T23:21:01.304Z,14.21
2023-01-01T23:26:06.511Z,14.22
2023-01-01T23:31:12.922Z,14.22
2023-01-01T23:36:15.727Z,14.22
2023-01-01T23:41:20.004Z,14.22
2023-01-01T23:46:23.015Z,14.23
2023-01-01T23:51:26.141Z,14.19
2023-01-01T23:56:30.430Z,14.19
